sensor_id;sensor_type;location;lat;lon;timestamp;P1;durP1;ratioP1;P2;durP2;ratioP2
35681;SDS011;21805;51.022;4.782;2024-02-21T02:13:18;22.77;;;10.30;;
35681;SDS011;21805;51.022;4.782;2024-02-21T02:15:44;33.28;;;11.77;;
35681;SDS011;21805;51.022;4.782;2024-02-21T02:18:19;24.30;;;10.70;;
35681;SDS011;21805;51.022;4.782;2024-02-21T02:20:48;26.45;;;10.07;;
35681;SDS011;21805;51.022;4.782;2024-02-21T07:43:29;13.75;;;7.50;;
35681;SDS011;21805;51.022;4.782;2024-02-21T07:54:56;15.73;;;9.00;;
35681;SDS011;21805;51.022;4.782;2024-02-21T08:31:07;17.63;;;9.90;;
35681;SDS011;21805;51.022;4.782;2024-02-21T08:42:06;21.75;;;10.38;;
35681;SDS011;21805;51.022;4.782;2024-02-21T08:48:32;21.00;;;11.77;;
35681;SDS011;21805;51.022;4.782;2024-02-21T09:49:58;14.73;;;5.60;;
35681;SDS011;21805;51.022;4.782;2024-02-21T09:57:50;13.63;;;5.47;;
35681;SDS011;21805;51.022;4.782;2024-02-21T10:00:34;14.10;;;5.30;;
35681;SDS011;21805;51.022;4.782;2024-02-21T10:03:03;14.32;;;5.75;;
35681;SDS011;21805;51.022;4.782;2024-02-21T10:08:21;12.43;;;5.55;;
35681;SDS011;21805;51.022;4.782;2024-02-21T10:11:25;13.93;;;5.95;;
35681;SDS011;21805;51.022;4.782;2024-02-21T10:16:36;17.30;;;6.57;;
35681;SDS011;21805;51.022;4.782;2024-02-21T10:22:21;14.68;;;5.57;;
35681;SDS011;21805;51.022;4.782;2024-02-21T10:28:12;12.40;;;5.50;;
35681;SDS011;21805;51.022;4.782;2024-02-21T10:30:55;15.02;;;5.15;;
35681;SDS011;21805;51.022;4.782;2024-02-21T10:42:12;11.57;;;5.13;;
35681;SDS011;21805;51.022;4.782;2024-02-21T10:44:46;13.98;;;5.70;;
35681;SDS011;21805;51.022;4.782;2024-02-21T10:50:32;19.90;;;9.50;;
35681;SDS011;21805;51.022;4.782;2024-02-21T11:03:33;11.50;;;4.72;;
35681;SDS011;21805;51.022;4.782;2024-02-21T11:05:58;13.57;;;4.90;;
35681;SDS011;21805;51.022;4.782;2024-02-21T11:08:44;12.18;;;5.90;;
35681;SDS011;21805;51.022;4.782;2024-02-21T11:11:12;19.23;;;5.40;;
35681;SDS011;21805;51.022;4.782;2024-02-21T11:13:48;11.57;;;4.60;;
35681;SDS011;21805;51.022;4.782;2024-02-21T11:16:23;15.20;;;4.85;;
35681;SDS011;21805;51.022;4.782;2024-02-21T11:18:50;12.20;;;4.78;;
35681;SDS011;21805;51.022;4.782;2024-02-21T11:21:16;11.38;;;4.35;;
35681;SDS011;21805;51.022;4.782;2024-02-21T11:23:43;11.05;;;4.63;;
35681;SDS011;21805;51.022;4.782;2024-02-21T11:26:10;14.80;;;4.32;;
35681;SDS011;21805;51.022;4.782;2024-02-21T11:28:57;16.88;;;4.78;;
35681;SDS011;21805;51.022;4.782;2024-02-21T11:31:38;12.70;;;4.80;;
35681;SDS011;21805;51.022;4.782;2024-02-21T11:34:10;13.40;;;4.22;;
35681;SDS011;21805;51.022;4.782;2024-02-21T11:36:53;16.77;;;4.72;;
35681;SDS011;21805;51.022;4.782;2024-02-21T11:39:26;13.80;;;4.60;;
35681;SDS011;21805;51.022;4.782;2024-02-21T11:42:06;11.45;;;4.30;;
35681;SDS011;21805;51.022;4.782;2024-02-21T11:44:35;9.88;;;3.50;;
35681;SDS011;21805;51.022;4.782;2024-02-21T11:47:14;15.52;;;4.53;;
35681;SDS011;21805;51.022;4.782;2024-02-21T11:49:45;14.38;;;3.95;;
35681;SDS011;21805;51.022;4.782;2024-02-21T11:52:14;12.50;;;4.05;;
35681;SDS011;21805;51.022;4.782;2024-02-21T11:57:14;21.50;;;4.85;;
35681;SDS011;21805;51.022;4.782;2024-02-21T11:59:59;7.72;;;3.63;;
35681;SDS011;21805;51.022;4.782;2024-02-21T12:05:14;14.18;;;4.30;;
35681;SDS011;21805;51.022;4.782;2024-02-21T12:13:43;14.77;;;4.30;;
35681;SDS011;21805;51.022;4.782;2024-02-21T12:16:09;13.50;;;4.55;;
35681;SDS011;21805;51.022;4.782;2024-02-21T12:26:20;8.70;;;3.08;;
35681;SDS011;21805;51.022;4.782;2024-02-21T12:28:53;10.35;;;3.60;;
35681;SDS011;21805;51.022;4.782;2024-02-21T12:31:40;8.60;;;3.38;;
35681;SDS011;21805;51.022;4.782;2024-02-21T12:37:05;9.43;;;3.63;;
35681;SDS011;21805;51.022;4.782;2024-02-21T12:44:49;10.68;;;4.00;;
35681;SDS011;21805;51.022;4.782;2024-02-21T12:47:27;13.07;;;4.22;;
35681;SDS011;21805;51.022;4.782;2024-02-21T12:50:06;9.30;;;3.92;;
35681;SDS011;21805;51.022;4.782;2024-02-21T12:52:35;10.23;;;3.72;;
35681;SDS011;21805;51.022;4.782;2024-02-21T12:55:14;9.52;;;3.83;;
35681;SDS011;21805;51.022;4.782;2024-02-21T13:00:09;12.85;;;4.07;;
35681;SDS011;21805;51.022;4.782;2024-02-21T13:02:36;9.10;;;3.53;;
35681;SDS011;21805;51.022;4.782;2024-02-21T13:05:02;11.13;;;4.00;;
35681;SDS011;21805;51.022;4.782;2024-02-21T13:07:29;9.02;;;4.40;;
35681;SDS011;21805;51.022;4.782;2024-02-21T13:09:58;12.73;;;3.85;;
35681;SDS011;21805;51.022;4.782;2024-02-21T13:15:00;13.68;;;5.60;;
35681;SDS011;21805;51.022;4.782;2024-02-21T13:17:39;11.57;;;5.47;;
35681;SDS011;21805;51.022;4.782;2024-02-21T13:22:38;14.18;;;4.50;;
35681;SDS011;21805;51.022;4.782;2024-02-21T13:25:08;10.85;;;4.80;;
35681;SDS011;21805;51.022;4.782;2024-02-21T13:27:35;10.77;;;4.38;;
35681;SDS011;21805;51.022;4.782;2024-02-21T13:30:04;9.68;;;4.07;;
35681;SDS011;21805;51.022;4.782;2024-02-21T13:35:07;15.02;;;4.38;;
35681;SDS011;21805;51.022;4.782;2024-02-21T13:37:35;10.82;;;3.97;;
35681;SDS011;21805;51.022;4.782;2024-02-21T13:40:05;9.65;;;3.70;;
35681;SDS011;21805;51.022;4.782;2024-02-21T13:42:34;12.10;;;3.65;;
35681;SDS011;21805;51.022;4.782;2024-02-21T13:45:03;9.25;;;3.65;;
35681;SDS011;21805;51.022;4.782;2024-02-21T13:47:30;15.15;;;4.07;;
35681;SDS011;21805;51.022;4.782;2024-02-21T13:49:57;8.32;;;3.67;;
35681;SDS011;21805;51.022;4.782;2024-02-21T13:52:23;11.77;;;3.97;;
35681;SDS011;21805;51.022;4.782;2024-02-21T13:54:54;9.35;;;3.75;;
35681;SDS011;21805;51.022;4.782;2024-02-21T13:57:20;12.43;;;4.28;;
35681;SDS011;21805;51.022;4.782;2024-02-21T13:59:46;8.25;;;4.20;;
35681;SDS011;21805;51.022;4.782;2024-02-21T14:05:01;11.18;;;3.80;;
35681;SDS011;21805;51.022;4.782;2024-02-21T14:07:43;7.65;;;3.45;;
35681;SDS011;21805;51.022;4.782;2024-02-21T14:10:10;9.23;;;4.20;;
35681;SDS011;21805;51.022;4.782;2024-02-21T14:12:36;10.73;;;3.65;;
35681;SDS011;21805;51.022;4.782;2024-02-21T14:15:04;9.25;;;4.43;;
35681;SDS011;21805;51.022;4.782;2024-02-21T14:17:32;13.32;;;3.85;;
35681;SDS011;21805;51.022;4.782;2024-02-21T14:23:00;12.10;;;3.85;;
35681;SDS011;21805;51.022;4.782;2024-02-21T14:25:27;9.40;;;4.25;;
35681;SDS011;21805;51.022;4.782;2024-02-21T14:27:56;10.05;;;4.47;;
35681;SDS011;21805;51.022;4.782;2024-02-21T14:30:24;10.63;;;3.92;;
35681;SDS011;21805;51.022;4.782;2024-02-21T14:33:07;9.90;;;3.90;;
35681;SDS011;21805;51.022;4.782;2024-02-21T14:35:39;13.77;;;4.53;;
35681;SDS011;21805;51.022;4.782;2024-02-21T14:38:04;13.40;;;4.50;;
35681;SDS011;21805;51.022;4.782;2024-02-21T14:40:36;13.80;;;4.43;;
35681;SDS011;21805;51.022;4.782;2024-02-21T14:43:03;7.65;;;4.40;;
35681;SDS011;21805;51.022;4.782;2024-02-21T14:45:35;16.70;;;5.03;;
35681;SDS011;21805;51.022;4.782;2024-02-21T14:50:38;9.98;;;4.50;;
35681;SDS011;21805;51.022;4.782;2024-02-21T14:53:09;13.20;;;4.93;;
35681;SDS011;21805;51.022;4.782;2024-02-21T14:55:35;14.73;;;6.20;;
35681;SDS011;21805;51.022;4.782;2024-02-21T14:58:06;18.08;;;8.15;;
35681;SDS011;21805;51.022;4.782;2024-02-21T15:00:35;16.85;;;5.25;;
35681;SDS011;21805;51.022;4.782;2024-02-21T15:03:08;11.55;;;5.28;;
35681;SDS011;21805;51.022;4.782;2024-02-21T15:05:53;11.65;;;5.47;;
35681;SDS011;21805;51.022;4.782;2024-02-21T15:08:34;9.25;;;4.40;;
35681;SDS011;21805;51.022;4.782;2024-02-21T15:11:07;11.48;;;4.80;;
35681;SDS011;21805;51.022;4.782;2024-02-21T20:24:09;3.67;;;2.40;;
35681;SDS011;21805;51.022;4.782;2024-02-21T20:26:38;3.08;;;2.30;;
35681;SDS011;21805;51.022;4.782;2024-02-21T20:31:39;2.67;;;2.20;;
35681;SDS011;21805;51.022;4.782;2024-02-21T20:34:16;2.40;;;2.17;;
